createdAt,value
2022-10-21T22:01:08.413Z,7.00
2022-10-21T22:01:43.761Z,6.70
2022-10-21T22:02:19.023Z,7.00
2022-10-21T22:02:54.206Z,7.70
2022-10-21T22:03:29.575Z,7.70
2022-10-21T22:04:04.869Z,7.00
2022-10-21T22:04:40.110Z,6.90
2022-10-21T22:05:15.583Z,7.40
2022-10-21T22:05:50.864Z,7.50
2022-10-21T22:07:02.863Z,7.00
2022-10-21T22:07:36.676Z,7.80
2022-10-21T22:08:11.732Z,7.50
2022-10-21T22:08:47.055Z,8.10
2022-10-21T22:09:22.138Z,7.50
2022-10-21T22:09:57.769Z,6.70
2022-10-21T22:10:32.866Z,7.40
2022-10-21T22:11:08.053Z,8.00
2022-10-21T22:11:43.167Z,7.60
2022-10-21T22:12:20.925Z,7.40
2022-10-21T22:12:53.365Z,6.70
2022-10-21T22:13:28.563Z,7.20
2022-10-21T22:14:03.679Z,7.10
2022-10-21T22:14:38.775Z,6.70
2022-10-21T22:15:29.630Z,7.20
2022-10-21T22:15:49.629Z,7.80
2022-10-21T22:16:24.795Z,7.50
2022-10-21T22:17:00.197Z,7.50
2022-10-21T22:17:35.609Z,7.70
2022-10-21T22:18:10.688Z,7.20
2022-10-21T22:18:45.870Z,7.10
2022-10-21T22:19:21.343Z,7.80
2022-10-21T22:19:56.340Z,7.40
2022-10-21T22:20:31.333Z,7.80
2022-10-21T22:21:06.443Z,7.30
2022-10-21T22:21:41.649Z,7.60
2022-10-21T22:22:16.826Z,7.90
2022-10-21T22:22:52.013Z,7.90
2022-10-21T22:23:27.285Z,6.90
2022-10-21T22:24:02.398Z,7.50
2022-10-21T22:24:37.688Z,8.30
2022-10-21T22:25:13.068Z,7.90
2022-10-21T22:25:48.379Z,8.00
2022-10-21T22:26:23.673Z,7.50
2022-10-21T22:26:58.879Z,7.00
2022-10-21T22:27:34.162Z,8.00
2022-10-21T22:28:09.533Z,8.00
2022-10-21T22:28:44.667Z,7.80
2022-10-21T22:29:19.939Z,7.50
2022-10-21T22:29:55.132Z,7.80
2022-10-21T22:30:30.204Z,9.00
2022-10-21T22:31:05.401Z,7.70
2022-10-21T22:31:40.481Z,6.80
2022-10-21T22:32:15.862Z,7.60
2022-10-21T22:32:51.458Z,7.40
2022-10-21T22:33:26.869Z,7.00
2022-10-21T22:34:02.785Z,7.00
2022-10-21T22:34:37.848Z,8.30
2022-10-21T22:35:13.232Z,8.80
2022-10-21T22:35:48.531Z,8.30
2022-10-21T22:36:23.827Z,7.40
2022-10-21T22:36:59.123Z,7.40
2022-10-21T22:37:34.312Z,7.90
2022-10-21T22:38:09.614Z,7.90
2022-10-21T22:38:44.695Z,8.30
2022-10-21T22:39:20.095Z,8.70
2022-10-21T22:39:55.166Z,7.60
2022-10-21T22:40:30.271Z,8.00
2022-10-21T22:41:08.602Z,8.10
2022-10-21T22:41:41.076Z,7.90
2022-10-21T22:42:16.263Z,8.20
2022-10-21T22:42:51.532Z,8.40
2022-10-21T22:43:26.641Z,7.50
2022-10-21T22:44:01.825Z,7.40
2022-10-21T22:44:37.210Z,7.60
2022-10-21T22:45:12.494Z,7.60
2022-10-21T22:45:48.172Z,7.80
2022-10-21T22:46:34.342Z,8.20
2022-10-21T22:46:58.593Z,8.00
2022-10-21T22:47:33.895Z,7.30
2022-10-21T22:48:09.106Z,7.40
2022-10-21T22:48:44.335Z,7.50
2022-10-21T22:49:19.631Z,7.50
2022-10-21T22:49:54.932Z,7.60
2022-10-21T22:50:30.108Z,7.70
2022-10-21T22:51:05.419Z,8.20
2022-10-21T22:51:40.526Z,8.60
2022-10-21T22:52:15.899Z,8.80
2022-10-21T22:52:51.495Z,7.90
2022-10-21T22:53:26.684Z,7.90
2022-10-21T22:54:02.080Z,8.30
2022-10-21T22:54:49.079Z,8.40
2022-10-21T22:55:12.848Z,8.30
2022-10-21T22:55:47.854Z,7.20
2022-10-21T22:56:23.242Z,8.20
2022-10-21T22:56:58.452Z,8.60
2022-10-21T22:57:33.932Z,8.80
2022-10-21T22:58:08.941Z,8.60
2022-10-21T22:58:44.248Z,7.50
2022-10-21T22:59:20.050Z,8.10
2022-10-21T22:59:55.247Z,8.30
2022-10-21T23:00:30.522Z,8.50
2022-10-21T23:01:05.713Z,8.80
2022-10-21T23:01:41.014Z,8.50
2022-10-21T23:02:16.265Z,7.80
2022-10-21T23:02:51.506Z,7.70
2022-10-21T23:03:27.084Z,7.30
2022-10-21T23:04:02.185Z,7.30
2022-10-21T23:04:37.873Z,8.50
2022-10-21T23:05:12.863Z,8.10
2022-10-21T23:05:48.355Z,8.00
2022-10-21T23:06:23.757Z,7.80
2022-10-21T23:06:59.155Z,7.40
2022-10-21T23:07:34.358Z,7.90
2022-10-21T23:08:09.439Z,9.10
2022-10-21T23:08:44.712Z,8.50
2022-10-21T23:09:19.975Z,8.50
2022-10-21T23:09:55.065Z,8.40
2022-10-21T23:10:30.489Z,7.80
2022-10-21T23:11:05.799Z,7.70
2022-10-21T23:11:41.173Z,7.90
2022-10-21T23:12:16.660Z,8.10
2022-10-21T23:12:51.976Z,8.60
2022-10-21T23:13:27.470Z,8.60
2022-10-21T23:14:07.856Z,8.20
2022-10-21T23:14:37.952Z,8.40
2022-10-21T23:15:13.812Z,7.90
2022-10-21T23:15:49.096Z,7.60
2022-10-21T23:16:24.418Z,8.80
2022-10-21T23:16:59.636Z,8.30
2022-10-21T23:17:35.020Z,7.40
2022-10-21T23:18:10.540Z,7.40
2022-10-21T23:18:45.723Z,7.80
2022-10-21T23:19:20.735Z,8.40
2022-10-21T23:19:55.923Z,8.00
2022-10-21T23:20:31.418Z,7.80
2022-10-21T23:21:06.624Z,7.60
2022-10-21T23:21:41.923Z,7.40
2022-10-21T23:22:17.301Z,7.80
2022-10-21T23:22:52.591Z,8.00
2022-10-21T23:23:27.808Z,8.50
2022-10-21T23:24:02.787Z,8.50
2022-10-21T23:24:38.137Z,7.90
2022-10-21T23:25:13.669Z,8.20
2022-10-21T23:25:49.059Z,8.80
2022-10-21T23:26:24.160Z,10.00
2022-10-21T23:27:01.365Z,9.40
2022-10-21T23:27:34.444Z,8.60
2022-10-21T23:28:09.934Z,9.20
2022-10-21T23:28:44.976Z,8.40
2022-10-21T23:29:20.069Z,8.80
2022-10-21T23:29:55.042Z,8.60
2022-10-21T23:30:30.332Z,8.50
2022-10-21T23:31:05.532Z,9.70
2022-10-21T23:31:40.922Z,9.40
2022-10-21T23:32:16.114Z,10.20
2022-10-21T23:32:51.590Z,9.10
2022-10-21T23:33:26.881Z,8.60
2022-10-21T23:34:02.198Z,9.70
2022-10-21T23:34:37.382Z,10.30
2022-10-21T23:35:12.485Z,10.50
2022-10-21T23:35:47.661Z,10.20
2022-10-21T23:36:22.972Z,9.80
2022-10-21T23:36:58.050Z,9.20
2022-10-21T23:37:33.242Z,8.90
2022-10-21T23:38:08.339Z,8.80
2022-10-21T23:38:43.430Z,10.30
2022-10-21T23:39:18.741Z,9.60
2022-10-21T23:39:54.209Z,8.60
2022-10-21T23:40:29.393Z,8.60
2022-10-21T23:41:04.898Z,8.30
2022-10-21T23:41:39.889Z,8.20
2022-10-21T23:42:15.190Z,8.50
2022-10-21T23:42:50.266Z,8.60
2022-10-21T23:43:25.471Z,9.90
2022-10-21T23:44:00.862Z,8.60
2022-10-21T23:44:35.868Z,8.50
2022-10-21T23:45:11.263Z,8.50
2022-10-21T23:45:46.577Z,7.90
2022-10-21T23:46:21.939Z,7.50
2022-10-21T23:46:57.063Z,7.50
2022-10-21T23:47:32.360Z,8.60
2022-10-21T23:48:07.496Z,7.60
2022-10-21T23:48:42.894Z,7.40
2022-10-21T23:49:17.984Z,7.70
2022-10-21T23:49:53.083Z,8.20
2022-10-21T23:50:28.628Z,7.60
2022-10-21T23:51:03.909Z,6.30
2022-10-21T23:51:39.392Z,6.60
2022-10-21T23:52:14.890Z,8.30
2022-10-21T23:52:50.376Z,8.00
2022-10-21T23:53:25.382Z,8.70
2022-10-21T23:54:00.364Z,8.10
2022-10-21T23:54:35.545Z,7.90
2022-10-21T23:55:10.679Z,7.70
2022-10-21T23:55:46.551Z,8.10
2022-10-21T23:56:21.548Z,8.30
2022-10-21T23:56:56.611Z,8.60
2022-10-21T23:57:31.913Z,8.70
2022-10-21T23:58:07.000Z,8.10
2022-10-21T23:58:42.167Z,6.80
2022-10-21T23:59:17.373Z,6.80
2022-10-21T23:59:52.765Z,8.20
